Time;durP1;ratioP1;P1;durP2;ratioP2;P2;SDS_P1;SDS_P2;PMS_P1;PMS_P2;Temp;Humidity;BMP_temperature;BMP_pressure;BME280_temperature;BME280_humidity;BME280_pressure;Samples;Min_cycle;Max_cycle;Signal;HPM_P1;HPM_P2
2022/08/21 00:27:05;;;;;;;;;;;;;;;;;;;;;
2022/08/21 01:12:17;;;;;;;;;;;;;;;;;;;;;
2022/08/21 01:15:37;;;;;;;;;;;;;;;;;;;;;
2022/08/21 01:19:03;;;;;;;;;;;;;;;;;;;;;
2022/08/21 01:40:37;;;;;;;0.80;0.70;;;;;;;23.42;52.63;93288.25;4960476;23;20067;-93
2022/08/21 01:46:38;;;;;;;1.40;0.80;;;;;;;23.43;52.89;93289.75;4789081;30;20480;-93
2022/08/21 02:22:12;;;;;;;1.33;0.98;;;;;;;23.45;52.54;93265.09;4823490;29;20045;-93
2022/08/21 02:25:07;;;;;;;;;;;;;;;;;;;;;
2022/08/21 02:32:06;;;;;;;1.10;0.80;;;;;;;23.38;53.00;93265.84;4778801;30;20096;-94
2022/08/21 03:05:40;;;;;;;0.98;0.88;;;;;;;23.45;52.41;93258.84;4869997;29;20045;-95
2022/08/21 03:08:38;;;;;;;1.65;1.13;;;;;;;23.45;52.39;93256.09;4869598;29;20028;-92
2022/08/21 03:11:10;;;;;;;1.50;1.13;;;;;;;23.53;52.38;93268.66;4884555;29;20047;-93
2022/08/21 03:17:20;;;;;;;;;;;;;;;;;;;;;
2022/08/21 03:20:48;;;;;;;;;;;;;;;;;;;;;
2022/08/21 03:23:43;;;;;;;1.25;0.80;;;;;;;23.42;52.46;93262.69;4966393;23;20112;-93
2022/08/21 03:27:09;;;;;;;1.15;0.90;;;;;;;23.38;52.64;93267.84;4840068;29;20050;-93
2022/08/21 03:29:52;;;;;;;1.10;0.80;;;;;;;23.40;52.61;93263.25;4853826;29;20544;-93
2022/08/21 03:32:45;;;;;;;;;;;;;;;;;;;;;
2022/08/21 03:39:27;;;;;;;1.88;1.27;;;;;;;23.37;52.66;93263.63;4838733;29;20075;-93
2022/08/21 03:42:46;;;;;;;;;;;;;;;;;;;;;
2022/08/21 03:45:48;;;;;;;0.98;0.88;;;;;;;23.37;52.55;93258.09;4784977;29;20126;-93
2022/08/21 03:48:57;;;;;;;2.05;1.15;;;;;;;23.38;52.60;93257.56;4778530;30;20134;-94
2022/08/21 04:12:38;;;;;;;;;;;;;;;;;;;;;
2022/08/21 04:18:59;;;;;;;;;;;;;;;;;;;;;
2022/08/21 04:21:57;;;;;;;1.25;0.95;;;;;;;23.39;52.40;93288.63;4887465;29;20120;-94
2022/08/21 04:25:09;;;;;;;1.38;1.10;;;;;;;23.33;52.49;93294.31;4864158;29;20041;-94
2022/08/21 04:28:13;;;;;;;0.98;0.80;;;;;;;23.35;52.68;93282.75;4814449;29;20035;-95
2022/08/21 04:31:00;;;;;;;;;;;;;;;;;;;;;
2022/08/21 04:33:59;;;;;;;1.50;1.00;;;;;;;23.41;52.39;93297.09;4837686;29;20123;-94
2022/08/21 04:36:49;;;;;;;1.00;0.85;;;;;;;23.43;52.30;93297.28;4837306;29;20034;-94
2022/08/21 04:39:53;;;;;;;0.98;0.82;;;;;;;23.40;52.49;93301.84;4815823;29;20102;-94
2022/08/21 04:42:40;;;;;;;1.13;1.02;;;;;;;23.43;52.30;93303.53;4821288;29;20069;-94
2022/08/21 04:45:41;;;;;;;;;;;;;;;;;;;;;
2022/08/21 04:48:21;;;;;;;2.20;0.77;;;;;;;23.41;52.52;93292.31;4851912;23;20132;31
2022/08/21 04:51:22;;;;;;;1.63;0.93;;;;;;;23.37;52.40;93305.00;4852095;29;20053;-94
2022/08/21 04:54:13;;;;;;;1.10;0.90;;;;;;;23.38;52.44;93309.22;4866845;29;20300;-95
2022/08/21 04:56:55;;;;;;;;;;;;;;;23.37;52.64;93299.47;4869360;29;20037;-93
2022/08/21 05:00:01;;;;;;;1.83;0.90;;;;;;;23.36;52.63;93307.03;4851747;29;20007;-94
2022/08/21 05:02:39;;;;;;;1.50;1.10;;;;;;;23.39;52.46;93308.66;4797829;29;20398;-94
2022/08/21 05:05:22;;;;;;;1.83;1.08;;;;;;;23.39;52.47;93310.69;4815032;29;20053;-93
2022/08/21 05:08:11;;;;;;;0.80;0.80;;;;;;;23.41;52.34;93308.13;4799404;29;20069;-94
2022/08/21 05:10:58;;;;;;;;;;;;;;;;;;;;;
2022/08/21 05:17:07;;;;;;;1.00;0.77;;;;;;;23.38;52.37;93321.00;4799205;29;20438;-94
2022/08/21 05:19:54;;;;;;;1.00;0.70;;;;;;;23.35;52.57;93318.59;4857031;23;20072;-94
2022/08/21 05:22:56;;;;;;;1.00;0.80;;;;;;;23.32;52.73;93317.66;4891982;29;20505;-93
2022/08/21 05:26:06;;;;;;;1.08;0.93;;;;;;;23.32;52.74;93319.69;4859316;29;20568;-94
2022/08/21 05:29:02;;;;;;;1.27;0.90;;;;;;;23.38;52.45;93315.50;4850441;29;20038;-95
2022/08/21 05:31:50;;;;;;;1.08;0.77;;;;;;;23.39;52.35;93318.97;4836712;29;20034;-94
2022/08/21 05:34:49;;;;;;;1.77;1.38;;;;;;;23.33;52.68;93327.41;4836134;29;20037;-92
2022/08/21 05:37:31;;;;;;;0.77;0.77;;;;;;;23.40;52.46;93321.16;4832422;29;20042;-93
2022/08/21 05:40:08;;;;;;;1.08;0.90;;;;;;;23.33;52.46;93323.91;4836597;29;20037;-93
2022/08/21 05:43:05;;;;;;;1.38;0.93;;;;;;;23.32;52.71;93333.47;4835836;29;20041;-93
2022/08/21 05:48:49;;;;;;;1.02;0.95;;;;;;;23.43;52.29;93336.63;4914902;23;20072;-94
2022/08/21 05:54:34;;;;;;;1.98;0.73;;;;;;;23.37;52.42;93333.31;4873664;23;20052;-93
2022/08/21 05:57:22;;;;;;;1.20;1.08;;;;;;;23.41;52.32;93330.19;4887044;29;20044;-94
2022/08/21 06:00:33;;;;;;;;;;;;;;;;;;;;;
2022/08/21 06:03:35;;;;;;;1.30;1.00;;;;;;;23.33;52.70;93329.44;4889183;29;20128;-94
2022/08/21 06:06:16;;;;;;;0.63;0.63;;;;;;;23.38;52.50;93342.34;4886590;29;20048;-93
2022/08/21 06:09:02;;;;;;;1.50;1.08;;;;;;;23.39;52.50;93336.25;4886615;29;20070;-94
2022/08/21 06:11:40;;;;;;;1.27;0.90;;;;;;;23.41;52.37;93338.47;4855208;29;20124;-93
2022/08/21 06:14:16;;;;;;;0.75;0.60;;;;;;;23.36;52.53;93342.88;4870184;29;20045;-94
2022/08/21 06:17:17;;;;;;;1.30;1.00;;;;;;;23.36;52.58;93331.84;4870684;29;20029;-93
2022/08/21 06:19:53;;;;;;;;;;;;;;;23.39;52.43;93330.00;4889641;29;20025;-92
2022/08/21 06:22:34;;;;;;;0.82;0.70;;;;;;;23.37;52.53;93324.31;4884103;29;19916;-94
2022/08/21 06:25:09;;;;;;;1.10;0.70;;;;;;;23.41;52.31;93324.66;4869683;29;20044;-93
2022/08/21 06:30:44;;;;;;;0.73;0.70;;;;;;;23.35;52.55;93324.84;4886625;29;20033;-93
2022/08/21 06:33:12;;;;;;;0.80;0.68;;;;;;;23.43;52.35;93336.63;4867068;29;20032;-93
2022/08/21 06:36:04;;;;;;;0.93;0.68;;;;;;;23.43;52.16;93335.91;4864902;29;20549;-94
2022/08/21 06:38:50;;;;;;;0.95;0.70;;;;;;;23.40;52.38;93337.72;4856111;29;20041;-94
2022/08/21 06:41:39;;;;;;;0.85;0.80;;;;;;;23.37;52.36;93335.34;4881370;29;20036;-93
2022/08/21 06:44:35;;;;;;;2.58;0.98;;;;;;;23.33;52.43;93332.94;4889475;29;20524;-95
2022/08/21 06:47:11;;;;;;;0.85;0.80;;;;;;;23.32;52.46;93334.22;4894276;29;20048;-93
2022/08/21 06:49:57;;;;;;;0.88;0.75;;;;;;;23.37;52.41;93338.09;4894354;29;20032;-94
2022/08/21 06:55:15;;;;;;;;;;;;;;;;;;;;;
2022/08/21 06:58:19;;;;;;;1.42;0.93;;;;;;;23.41;52.21;93327.44;4872127;29;20141;-94
2022/08/21 07:01:37;;;;;;;1.35;0.93;;;;;;;23.37;52.45;93330.56;4847943;29;20041;-93
2022/08/21 07:07:46;;;;;;;1.65;0.90;;;;;;;23.35;52.48;93326.88;4868225;29;20034;-94
2022/08/21 07:10:44;;;;;;;1.00;0.80;;;;;;;23.42;52.31;93335.16;4943040;23;20045;-94
2022/08/21 07:19:42;;;;;;;0.75;0.60;;;;;;;23.32;52.52;93334.22;1477036;23;20304;-94
2022/08/21 07:25:40;;;;;;;0.77;0.68;;;;;;;23.39;52.40;93335.50;4845505;29;20513;-93
2022/08/21 07:28:48;;;;;;;1.27;0.90;;;;;;;23.35;52.31;93337.91;4850885;29;20046;-94
2022/08/21 07:31:46;;;;;;;1.00;0.77;;;;;;;23.37;52.32;93333.31;4815617;29;20038;-94
2022/08/21 07:34:34;;;;;;;0.93;0.70;;;;;;;23.34;52.40;93334.41;4803709;29;20127;-93
2022/08/21 07:37:14;;;;;;;1.15;0.77;;;;;;;23.29;52.43;93342.84;4845725;29;20050;-94
2022/08/21 07:40:05;;;;;;;0.93;0.65;;;;;;;23.33;52.30;93337.72;4828487;29;20043;-94
2022/08/21 07:43:18;;;;;;;;;;;;;;;;;;;;;
2022/08/21 07:46:34;;;;;;;10.07;1.58;;;;;;;23.32;52.64;93339.00;4823091;29;19984;-93
2022/08/21 07:56:59;;;;;;;;;;;;;;;;;;;;;
2022/08/21 07:59:44;;;;;;;1.00;0.90;;;;;;;23.37;52.36;93333.31;4624699;31;20099;-93
2022/08/21 08:09:48;;;;;;;0.93;0.80;;;;;;;23.30;52.68;93334.00;4799281;30;20047;-94
2022/08/21 08:15:19;;;;;;;;;;;;;;;;;;;;;
2022/08/21 08:33:31;;;;;;;0.77;0.60;;;;;;;23.37;52.35;93330.56;4889507;29;20059;-93
2022/08/21 08:37:02;;;;;;;;;;;;;;;;;;;;;
2022/08/21 08:40:11;;;;;;;1.02;0.70;;;;;;;23.32;52.50;93327.97;4906392;23;20151;-93
2022/08/21 08:45:58;;;;;;;1.55;1.02;;;;;;;23.34;52.57;93334.41;4896958;23;20055;-93
2022/08/21 08:49:22;;;;;;;;;;;;;;;;;;;;;
2022/08/21 08:52:39;;;;;;;0.90;0.75;;;;;;;23.37;52.43;93338.09;4886268;29;20557;-93
2022/08/21 08:55:46;;;;;;;3.13;1.05;;;;;;;23.36;52.54;93342.13;4845998;29;20048;-94
2022/08/21 09:22:09;;;;;;;1.67;0.70;;;;;;;23.39;52.34;93335.50;4899398;29;20049;-94
2022/08/21 09:24:44;;;;;;;2.40;1.13;;;;;;;23.35;52.50;93340.66;4870370;29;20055;-92
2022/08/21 09:27:16;;;;;;;15.60;2.67;;;;;;;23.33;54.05;93332.94;4886240;29;20035;-92
2022/08/21 09:29:44;;;;;;;4.35;2.33;;;;;;;23.31;54.06;93338.25;4892317;29;20028;-92
2022/08/21 09:32:25;;;;;;;2.20;1.60;;;;;;;23.34;53.41;93328.91;4886446;29;20040;-93
2022/08/21 09:35:03;;;;;;;2.67;1.63;;;;;;;23.31;53.67;93340.28;4901377;29;20035;-93
2022/08/21 09:37:30;;;;;;;2.50;1.52;;;;;;;23.27;53.66;93348.16;4885787;29;20025;-94
2022/08/21 09:39:57;;;;;;;2.42;1.80;;;;;;;23.29;53.54;93348.34;4868867;29;20028;-93
2022/08/21 09:42:28;;;;;;;2.80;2.05;;;;;;;23.23;54.15;93334.72;4849717;29;20025;-93
2022/08/21 09:45:12;;;;;;;2.15;1.92;;;;;;;23.29;53.54;93349.09;4864392;29;20437;-93
2022/08/21 09:47:41;;;;;;;2.10;1.83;;;;;;;23.24;53.80;93349.97;4864925;29;20444;-94
2022/08/21 09:50:19;;;;;;;2.22;1.80;;;;;;;23.25;53.76;93352.19;4867372;29;20528;-92
2022/08/21 09:52:49;;;;;;;2.20;1.55;;;;;;;23.31;53.52;93352.03;4870229;29;20087;-93
2022/08/21 09:58:03;;;;;;;2.42;2.05;;;;;;;23.24;53.74;93352.75;4890150;29;20135;-93
2022/08/21 10:00:32;;;;;;;2.25;2.00;;;;;;;23.26;54.08;93350.19;4866870;29;20029;-93
2022/08/21 10:03:12;;;;;;;1.92;1.55;;;;;;;23.27;53.63;93353.66;4866991;29;20020;-93
2022/08/21 10:05:39;;;;;;;1.88;1.42;;;;;;;23.27;53.79;93350.91;4848212;29;20109;-93
2022/08/21 10:08:05;;;;;;;2.53;1.95;;;;;;;23.30;53.61;93355.34;4855037;29;20036;-93
2022/08/21 10:10:35;;;;;;;2.65;1.83;;;;;;;23.28;53.79;93353.13;4884061;29;20551;-93
2022/08/21 10:13:23;;;;;;;2.83;1.52;;;;;;;23.29;53.84;93353.88;4885077;29;20087;-93
2022/08/21 10:16:13;;;;;;;2.22;1.77;;;;;;;23.23;53.86;93348.50;4897197;29;20047;-93
2022/08/21 10:18:44;;;;;;;2.35;1.98;;;;;;;23.33;53.73;93348.75;4846731;29;20104;-93
2022/08/21 10:21:32;;;;;;;2.28;1.88;;;;;;;23.34;53.91;93344.72;4883945;29;20056;-93
2022/08/21 10:24:13;;;;;;;2.08;1.77;;;;;;;23.30;53.72;93344.31;4916096;29;20490;-93
2022/08/21 10:26:45;;;;;;;;;;;;;;;23.32;53.81;93344.50;4900970;29;20032;-93
2022/08/21 10:29:33;;;;;;;2.42;1.77;;;;;;;23.30;53.84;93339.53;4900848;29;20383;-93
2022/08/21 10:32:32;;;;;;;2.90;1.73;;;;;;;23.31;53.88;93346.53;4846880;29;20037;-92
2022/08/21 10:35:19;;;;;;;2.78;2.13;;;;;;;23.24;53.83;93347.97;4834142;29;20147;-93
2022/08/21 10:37:59;;;;;;;1.88;1.50;;;;;;;23.30;53.94;93339.53;4811455;29;20188;-93
2022/08/21 10:40:31;;;;;;;4.47;1.80;;;;;;;23.26;54.04;93350.19;4815518;29;20630;-93
2022/08/21 10:43:07;;;;;;;3.78;1.88;;;;;;;23.29;53.94;93340.81;4822302;29;20491;-92
2022/08/21 10:45:40;;;;;;;3.50;2.03;;;;;;;23.30;53.70;93331.25;4811434;29;20096;-93
2022/08/21 10:48:08;;;;;;;3.40;2.17;;;;;;;23.31;53.59;93343.03;4782015;29;20550;-93
2022/08/21 10:50:43;;;;;;;1.80;1.50;;;;;;;23.33;53.69;93343.22;4802602;29;20529;-93
2022/08/21 10:53:33;;;;;;;1.60;1.50;;;;;;;23.29;53.83;93340.81;4777298;29;20053;-92
2022/08/21 10:56:02;;;;;;;2.20;1.63;;;;;;;23.30;53.94;93336.78;4775428;30;20066;-93
2022/08/21 10:58:33;;;;;;;1.63;1.53;;;;;;;23.34;53.79;93334.41;4759806;30;20032;-93
2022/08/21 11:01:31;;;;;;;1.63;1.50;;;;;;;23.29;54.03;93331.81;4789747;29;20050;-93
2022/08/21 11:04:30;;;;;;;1.55;1.38;;;;;;;23.30;53.96;93331.25;4774433;30;20192;-93
2022/08/21 11:07:29;;;;;;;1.70;1.45;;;;;;;23.35;53.67;93324.13;4762659;30;20039;-93
2022/08/21 11:09:55;;;;;;;1.88;1.52;;;;;;;23.35;53.67;93327.59;4773679;30;20703;-93
2022/08/21 11:12:45;;;;;;;1.83;1.40;;;;;;;23.36;53.72;93329.09;4775045;29;20045;-93
2022/08/21 11:15:34;;;;;;;1.85;1.58;;;;;;;23.35;53.71;93318.59;4781939;29;20054;-93
2022/08/21 11:18:10;;;;;;;2.25;1.60;;;;;;;23.39;53.75;93318.97;4798479;29;20133;-93
2022/08/21 11:20:38;;;;;;;1.83;1.65;;;;;;;23.43;53.71;93322.84;4778898;29;20051;-93
2022/08/21 11:23:31;;;;;;;1.63;1.45;;;;;;;23.37;53.79;93319.53;4793821;29;20027;-93
2022/08/21 11:26:00;;;;;;;2.08;1.60;;;;;;;23.40;53.63;93317.69;4779383;29;20095;-92
2022/08/21 11:28:34;;;;;;;2.03;1.80;;;;;;;23.42;53.56;93313.09;4798006;29;20638;-93
2022/08/21 11:31:17;;;;;;;2.65;1.75;;;;;;;23.45;53.79;93314.75;4841794;29;20088;-93
2022/08/21 11:33:48;;;;;;;1.45;1.35;;;;;;;23.42;53.78;93302.06;4829654;29;20452;-93
2022/08/21 11:36:29;;;;;;;;;;;;;;;23.45;53.46;93300.97;4833567;29;20037;-93
2022/08/21 11:39:26;;;;;;;2.10;1.30;;;;;;;23.46;53.42;93296.94;4847373;29;19916;-93
2022/08/21 11:42:16;;;;;;;1.73;1.38;;;;;;;23.46;53.64;93296.94;4822600;29;20041;-92
2022/08/21 11:45:11;;;;;;;1.58;1.38;;;;;;;23.47;53.46;93294.91;4848018;29;20197;-93
2022/08/21 11:47:45;;;;;;;1.42;1.33;;;;;;;23.45;53.65;93278.91;4864569;29;20128;-93
2022/08/21 11:50:21;;;;;;;1.67;1.38;;;;;;;23.47;53.48;93292.16;4847814;29;20044;-93
2022/08/21 11:52:55;;;;;;;1.65;1.45;;;;;;;23.47;53.53;93303.19;4830793;29;20030;-93
2022/08/21 11:55:27;;;;;;;1.40;1.30;;;;;;;23.47;53.75;93295.63;4830112;29;20034;-94
2022/08/21 11:57:59;;;;;;;1.60;1.30;;;;;;;23.48;53.50;93301.91;4829897;29;20525;-93
2022/08/21 12:00:31;;;;;;;1.45;1.25;;;;;;;23.48;53.53;93302.63;4829538;29;20501;-93
2022/08/21 12:03:05;;;;;;;1.70;1.30;;;;;;;23.50;53.43;93308.34;4797038;29;20035;-92
2022/08/21 12:05:41;;;;;;;2.22;1.50;;;;;;;23.52;53.36;93303.06;4846109;29;20102;-93
2022/08/21 12:08:09;;;;;;;2.20;1.58;;;;;;;23.51;53.45;93300.81;4845129;29;20079;-93
2022/08/21 12:10:41;;;;;;;1.70;1.30;;;;;;;23.51;53.58;93309.09;4829670;29;20037;-92
2022/08/21 12:13:21;;;;;;;2.05;1.40;;;;;;;23.53;53.46;93312.06;4845325;29;20046;-93
2022/08/21 12:16:11;;;;;;;1.40;1.30;;;;;;;23.51;53.42;93304.31;4829333;29;20062;-93
2022/08/21 12:18:40;;;;;;;1.50;1.15;;;;;;;23.51;53.29;93307.06;4812369;29;20045;-93
2022/08/21 12:21:27;;;;;;;1.50;1.33;;;;;;;23.53;53.48;93307.28;4812571;29;20046;-92
2022/08/21 12:24:03;;;;;;;1.63;1.30;;;;;;;23.52;53.44;93303.06;4791148;30;20055;-93
2022/08/21 12:26:57;;;;;;;1.20;1.00;;;;;;;23.53;53.47;93304.53;4776594;30;20040;-93
2022/08/21 12:29:47;;;;;;;2.17;1.67;;;;;;;23.54;53.37;93303.25;4759759;29;20429;-92
2022/08/21 12:32:42;;;;;;;1.17;1.07;;;;;;;23.55;53.16;93298.47;4727335;30;20473;-92
2022/08/21 12:35:19;;;;;;;1.60;1.40;;;;;;;23.55;53.47;93301.22;4737690;30;20381;-94
2022/08/21 12:38:08;;;;;;;1.60;1.05;;;;;;;23.54;53.58;93303.25;4729186;30;20040;-93
2022/08/21 12:40:41;;;;;;;1.40;1.30;;;;;;;23.53;53.46;93296.25;4723804;30;20040;-94
2022/08/21 12:43:14;;;;;;;1.35;1.10;;;;;;;23.53;53.37;93293.50;4707893;30;20137;-93
2022/08/21 12:45:53;;;;;;;1.35;1.00;;;;;;;23.54;53.19;93300.47;4674797;30;20069;-93
2022/08/21 12:48:35;;;;;;;1.53;1.20;;;;;;;23.53;53.36;93296.25;4661004;30;20095;-94
2022/08/21 12:51:13;;;;;;;1.83;1.30;;;;;;;23.53;53.66;93293.50;4690457;30;20072;-94
2022/08/21 12:53:48;;;;;;;1.50;1.00;;;;;;;23.53;53.56;93290.72;4659652;30;20132;-94
2022/08/21 12:56:22;;;;;;;1.80;1.20;;;;;;;23.52;53.61;93288.50;4705007;30;20041;-93
2022/08/21 12:58:55;;;;;;;1.33;1.10;;;;;;;23.55;53.15;93293.69;4691369;30;20480;-92
2022/08/21 13:01:29;;;;;;;0.90;0.80;;;;;;;23.54;53.38;93285.94;4642969;30;20054;-93
2022/08/21 13:04:03;;;;;;;1.55;1.10;;;;;;;23.56;53.27;93286.88;4658896;30;20540;-94
2022/08/21 13:06:37;;;;;;;1.40;1.30;;;;;;;23.54;53.30;93294.97;4673116;30;20042;-93
2022/08/21 13:09:11;;;;;;;1.10;1.00;;;;;;;23.58;53.28;93289.81;4698737;30;20049;-93
2022/08/21 13:11:39;;;;;;;1.92;1.33;;;;;;;23.55;53.48;93281.91;4690598;30;20146;-93
2022/08/21 13:14:06;;;;;;;1.45;1.20;;;;;;;23.57;53.47;93291.13;4711417;30;20781;-93
2022/08/21 13:16:38;;;;;;;1.33;0.98;;;;;;;23.54;53.46;93288.72;4757164;30;20044;-93
2022/08/21 13:19:11;;;;;;;1.95;1.30;;;;;;;23.56;53.47;93284.13;4743017;30;20068;-93
2022/08/21 13:21:41;;;;;;;1.48;1.02;;;;;;;23.56;53.30;93280.63;4742620;30;20436;-93
2022/08/21 13:24:24;;;;;;;1.50;1.15;;;;;;;23.56;53.51;93284.13;4743603;30;20056;-94
2022/08/21 13:26:57;;;;;;;1.05;0.80;;;;;;;23.57;53.41;93280.06;4739871;30;20517;-93
2022/08/21 13:29:29;;;;;;;2.05;1.30;;;;;;;23.57;53.56;93285.59;4756768;30;20040;-94
2022/08/21 13:32:00;;;;;;;1.27;1.10;;;;;;;23.60;53.56;93299.59;4740975;30;20035;-94
2022/08/21 13:34:31;;;;;;;1.52;0.93;;;;;;;23.57;53.41;93293.13;4757652;29;20559;-94
2022/08/21 13:36:59;;;;;;;0.85;0.70;;;;;;;23.58;53.44;93295.34;4798818;29;20053;-94
2022/08/21 13:39:29;;;;;;;1.45;0.93;;;;;;;23.58;53.41;93289.09;4799867;29;20483;-94
2022/08/21 13:41:57;;;;;;;1.00;0.90;;;;;;;23.60;53.36;93291.31;4825650;29;20074;-93
2022/08/21 13:44:37;;;;;;;1.95;0.90;;;;;;;23.58;53.25;93292.59;4784784;30;20048;-93
2022/08/21 13:47:04;;;;;;;2.15;0.98;;;;;;;23.60;53.18;93285.78;4788380;30;20044;-93
2022/08/21 13:49:39;;;;;;;1.40;1.13;;;;;;;23.61;53.46;93282.44;4777882;30;20059;-93
2022/08/21 13:52:27;;;;;;;1.00;0.90;;;;;;;23.60;53.40;93283.75;4793825;30;20035;-93
2022/08/21 13:55:01;;;;;;;1.92;1.33;;;;;;;23.61;53.36;93287.22;4778146;30;20244;-94
2022/08/21 13:57:32;;;;;;;1.40;1.15;;;;;;;23.61;53.36;93287.97;4789379;30;20044;-93
2022/08/21 14:00:18;;;;;;;1.83;1.40;;;;;;;23.62;53.37;93288.72;4781208;30;20032;-94
2022/08/21 14:02:50;;;;;;;1.30;0.90;;;;;;;23.60;53.51;93283.75;4777283;30;20039;-93
2022/08/21 14:05:27;;;;;;;1.48;1.10;;;;;;;23.60;53.24;93294.06;4778565;30;20071;-92
2022/08/21 14:08:21;;;;;;;1.02;0.93;;;;;;;23.62;53.35;93283.19;4789256;29;20035;-93
2022/08/21 14:11:13;;;;;;;1.40;1.30;;;;;;;23.62;53.08;93269.38;4796366;29;20463;-93
2022/08/21 14:13:47;;;;;;;1.20;1.10;;;;;;;23.63;53.30;93273.63;4801453;29;20080;-93
2022/08/21 14:16:40;;;;;;;1.00;0.90;;;;;;;23.61;53.44;93271.41;4813134;29;20035;-93
2022/08/21 14:19:37;;;;;;;2.03;1.02;;;;;;;23.65;53.23;93269.03;4801126;29;20038;-93
2022/08/21 14:22:38;;;;;;;0.75;0.70;;;;;;;23.64;53.23;93270.31;4803703;29;20046;-92
2022/08/21 14:25:14;;;;;;;0.82;0.80;;;;;;;23.65;53.30;93263.53;4816622;29;20381;-93
2022/08/21 14:27:50;;;;;;;1.20;0.75;;;;;;;23.66;53.22;93261.50;4746702;30;20571;-93
2022/08/21 14:30:24;;;;;;;1.40;1.13;;;;;;;23.66;53.48;93265.00;4762686;30;20043;-92
2022/08/21 14:32:53;;;;;;;1.48;1.20;;;;;;;23.68;53.21;93275.47;4738664;30;20037;-94
2022/08/21 14:35:21;;;;;;;1.73;1.13;;;;;;;23.69;53.08;93252.13;4719346;30;20040;-92
2022/08/21 14:37:50;;;;;;;1.20;1.05;;;;;;;23.69;52.98;93263.16;4756023;30;20063;-92
2022/08/21 14:40:17;;;;;;;1.20;1.10;;;;;;;23.67;53.07;93260.94;4756051;30;20551;-93
2022/08/21 14:42:49;;;;;;;1.92;1.08;;;;;;;23.69;53.19;93261.13;4755589;30;20108;-93
2022/08/21 14:45:43;;;;;;;1.55;0.80;;;;;;;23.68;53.09;93265.19;4751541;30;20041;-94
2022/08/21 14:48:09;;;;;;;1.23;0.95;;;;;;;23.72;53.23;93256.53;4723904;30;20041;-94
2022/08/21 14:50:41;;;;;;;2.22;0.93;;;;;;;23.70;53.32;93243.28;4723030;30;20433;-93
2022/08/21 14:53:09;;;;;;;1.20;1.00;;;;;;;23.70;53.08;93245.31;4753242;30;20502;-93
2022/08/21 14:56:04;;;;;;;1.05;0.77;;;;;;;23.73;52.94;93246.97;4756288;30;20052;-93
2022/08/21 14:58:22;;;;;;;1.60;1.33;;;;;;;23.71;53.20;93235.75;4769347;30;20085;-92
2022/08/21 15:00:53;;;;;;;0.98;0.80;;;;;;;23.71;53.19;93241.28;4742500;30;20052;-93
2022/08/21 15:03:21;;;;;;;0.80;0.80;;;;;;;23.75;53.04;93244.41;4763896;30;20043;-93
2022/08/21 15:05:50;;;;;;;1.58;1.23;;;;;;;23.78;53.10;93244.06;4789646;29;20093;-92
2022/08/21 15:08:23;;;;;;;1.02;0.93;;;;;;;23.77;53.01;93244.59;4811945;29;20046;-94
2022/08/21 15:10:52;;;;;;;0.93;0.85;;;;;;;23.76;53.16;93243.88;4814317;29;20143;-93
2022/08/21 15:13:21;;;;;;;0.80;0.77;;;;;;;23.78;53.07;93246.81;4872295;29;20032;-94
2022/08/21 15:15:55;;;;;;;0.80;0.77;;;;;;;23.81;52.95;93244.97;4881075;29;20044;-93
2022/08/21 15:18:22;;;;;;;1.23;1.00;;;;;;;23.81;52.86;93245.72;4871554;29;20033;-94
2022/08/21 15:20:58;;;;;;;0.88;0.80;;;;;;;23.81;52.94;93244.97;4855198;29;20034;-93
2022/08/21 15:23:27;;;;;;;1.75;1.13;;;;;;;23.84;52.98;93241.09;4808786;29;20037;-93
2022/08/21 15:25:59;;;;;;;1.42;1.00;;;;;;;23.86;52.74;93242.00;4850796;29;20114;-93
2022/08/21 15:28:30;;;;;;;1.35;0.82;;;;;;;23.89;52.88;93249.19;4905655;29;20033;-93
2022/08/21 15:31:00;;;;;;;1.10;0.90;;;;;;;23.90;52.60;93245.16;4830851;29;20043;-94
2022/08/21 15:33:26;;;;;;;1.10;1.00;;;;;;;23.88;52.92;93233.19;4874289;29;20033;-93
2022/08/21 15:35:56;;;;;;;1.30;1.10;;;;;;;23.88;52.82;93238.72;4821316;29;20061;-93
2022/08/21 15:38:22;;;;;;;;;;;;;;;23.84;52.96;93241.09;4852457;29;20041;-93
2022/08/21 15:40:49;;;;;;;1.10;0.93;;;;;;;23.89;52.86;93243.69;4852505;29;19927;-93
2022/08/21 15:43:23;;;;;;;1.05;0.95;;;;;;;23.90;52.86;93234.09;4834306;29;20026;-93
2022/08/21 15:45:50;;;;;;;1.10;1.00;;;;;;;23.90;52.90;93236.13;4818459;29;20502;-93
2022/08/21 15:48:20;;;;;;;1.15;0.88;;;;;;;23.88;52.79;93239.44;4865067;29;20062;-93
2022/08/21 15:50:47;;;;;;;0.93;0.75;;;;;;;23.91;52.95;93232.09;4884402;29;20452;-94
2022/08/21 15:53:36;;;;;;;0.80;0.80;;;;;;;23.90;52.93;93230.63;4871262;29;20041;-93
2022/08/21 15:56:05;;;;;;;1.17;0.93;;;;;;;23.98;52.82;93230.63;4864152;29;20045;-93
2022/08/21 15:58:35;;;;;;;1.50;1.08;;;;;;;23.97;52.78;93234.69;4808654;29;20042;-93
2022/08/21 16:01:06;;;;;;;1.02;0.90;;;;;;;23.97;52.92;93226.38;4838601;29;20038;-93
2022/08/21 16:03:43;;;;;;;0.98;0.88;;;;;;;23.98;52.79;93225.09;4867706;29;20707;-94
2022/08/21 16:06:41;;;;;;;1.35;0.93;;;;;;;23.95;52.81;93224.19;4858624;29;20053;-93
2022/08/21 16:09:13;;;;;;;1.10;1.00;;;;;;;24.00;52.54;93219.78;4814867;29;20438;-93
2022/08/21 16:11:43;;;;;;;1.30;1.20;;;;;;;23.99;52.77;93221.78;4813873;29;20434;-93
2022/08/21 16:14:12;;;;;;;1.20;1.10;;;;;;;23.98;52.73;93242.41;4830627;29;20098;-93
2022/08/21 16:16:39;;;;;;;2.55;1.10;;;;;;;23.99;52.82;93229.34;4798571;29;20039;-93
2022/08/21 16:19:15;;;;;;;1.08;0.93;;;;;;;23.97;52.70;93221.59;4797550;29;20519;-93
2022/08/21 16:21:41;;;;;;;1.23;0.98;;;;;;;23.99;52.88;93226.56;4794773;29;20077;-93
2022/08/21 16:24:10;;;;;;;1.60;0.82;;;;;;;24.01;52.88;93216.44;4794523;29;20059;-94
2022/08/21 16:26:37;;;;;;;1.40;0.95;;;;;;;24.01;52.88;93215.72;4762899;30;20106;-93
2022/08/21 16:29:20;;;;;;;1.00;0.90;;;;;;;24.00;52.82;93228.06;4731891;30;20075;-93
2022/08/21 16:31:59;;;;;;;0.80;0.80;;;;;;;24.00;52.84;93228.78;4744820;30;20067;-93
2022/08/21 16:34:37;;;;;;;1.20;1.05;;;;;;;23.96;52.84;93225.66;4759111;30;20040;-93
2022/08/21 16:37:21;;;;;;;1.20;1.02;;;;;;;23.94;52.97;93206.13;4741521;30;20024;-92
2022/08/21 16:39:50;;;;;;;0.95;0.85;;;;;;;23.96;52.86;93217.38;4743196;30;20117;-93
2022/08/21 16:42:20;;;;;;;0.98;0.85;;;;;;;23.95;52.83;93215.91;4693298;30;20109;-93
2022/08/21 16:44:58;;;;;;;1.35;0.90;;;;;;;23.92;53.27;93225.28;4717537;29;20037;-93
2022/08/21 16:47:35;;;;;;;1.10;0.98;;;;;;;23.95;53.22;93229.69;4813720;29;20038;-94
2022/08/21 16:50:07;;;;;;;1.48;0.90;;;;;;;23.95;52.85;93221.41;4818635;29;20090;-93
2022/08/21 16:52:38;;;;;;;1.58;1.00;;;;;;;23.93;53.04;93221.97;4852655;29;20056;-93
2022/08/21 16:55:13;;;;;;;1.45;1.08;;;;;;;23.92;52.91;93219.75;4873037;29;20060;-92
2022/08/21 16:57:43;;;;;;;1.58;1.10;;;;;;;23.93;53.09;93219.22;4900034;29;20388;-93
2022/08/21 17:00:14;;;;;;;1.55;1.10;;;;;;;23.92;52.99;93220.50;4872022;29;20021;-93
2022/08/21 17:02:46;;;;;;;1.42;1.02;;;;;;;23.91;53.14;93229.31;4858196;29;20037;-93
2022/08/21 17:05:13;;;;;;;1.42;1.10;;;;;;;23.89;53.18;93226.38;4857194;29;20052;-93
2022/08/21 17:07:39;;;;;;;3.10;1.00;;;;;;;23.93;53.00;93227.50;4873234;29;20393;-93
2022/08/21 17:10:14;;;;;;;1.80;0.88;;;;;;;23.88;53.19;93216.63;4854704;29;20048;-92
2022/08/21 17:12:45;;;;;;;0.82;0.82;;;;;;;23.88;53.14;93224.91;4870601;29;20133;-93
2022/08/21 17:15:22;;;;;;;1.10;1.00;;;;;;;23.87;52.97;93229.69;4885193;29;20120;-93
2022/08/21 17:17:52;;;;;;;1.75;1.00;;;;;;;23.89;53.21;93232.63;4841940;29;20491;-94
2022/08/21 17:20:23;;;;;;;1.27;0.90;;;;;;;23.87;53.09;93232.44;4821621;29;20106;-93
2022/08/21 17:22:49;;;;;;;0.98;0.88;;;;;;;23.85;53.28;93235.03;4804406;29;20046;-93
2022/08/21 17:25:18;;;;;;;1.00;0.88;;;;;;;23.86;53.12;93233.00;4805419;29;20104;-93
2022/08/21 17:27:59;;;;;;;1.17;0.85;;;;;;;23.83;53.19;93234.09;4818509;29;20082;-94
2022/08/21 17:30:28;;;;;;;1.23;1.02;;;;;;;23.87;53.30;93228.94;4783862;29;20035;-93
2022/08/21 17:32:54;;;;;;;1.33;0.95;;;;;;;23.90;53.13;93233.38;4799712;29;20046;-93
2022/08/21 17:35:20;;;;;;;1.17;0.82;;;;;;;23.85;53.22;93235.03;4783768;29;20051;-92
2022/08/21 17:37:52;;;;;;;1.35;1.02;;;;;;;23.85;53.35;93231.53;4782659;29;20065;-92
2022/08/21 17:40:26;;;;;;;1.00;0.80;;;;;;;23.80;53.26;93240.75;4771159;29;20083;-92
2022/08/21 17:43:15;;;;;;;0.90;0.80;;;;;;;23.79;53.16;93234.47;4798581;29;20039;-93
2022/08/21 17:45:44;;;;;;;1.20;1.00;;;;;;;23.80;53.51;93237.97;4812961;29;20149;-93
2022/08/21 17:48:13;;;;;;;1.05;0.95;;;;;;;23.78;53.35;93241.28;4815196;29;20058;-94
2022/08/21 17:50:39;;;;;;;1.13;0.95;;;;;;;23.78;53.20;93241.28;4801474;29;20043;-92